Terminal Aerodrome Forecast
Issued by NWS

Current Version | Previous Version | Graphics & Text | Print | Product List | Glossary On
Versions: 1 2 3 4 5 6 7 8 9 10 11 12 13 14 15 16 17 18 19
000
FTUS41 KILN 191700 RRA
TAFLCK
TAF
KLCK 191747Z 1918/2018 20017G26KT P6SM SCT060 BKN100
     FM200000 25015G25KT P6SM -SHSN OVC025
     FM200500 25014KT P6SM OVC025
     FM201000 25012KT P6SM OVC035
     FM201400 25014G22KT P6SM OVC035=

USA.gov is the U.S. government's official web portal to all federal, state and local government web resources and services.